sensor_id;sensor_type;location;lat;lon;timestamp;pressure;altitude;pressure_sealevel;temperature;humidity
79463;BME280;68931;47.286;18.756;2023-10-19T00:00:01;100188.09;;;8.23;76.58
79463;BME280;68931;47.286;18.756;2023-10-19T00:00:53;100167.22;;;8.06;76.85
79463;BME280;68931;47.286;18.756;2023-10-19T00:01:27;100192.53;;;8.21;76.21
79463;BME280;68931;47.286;18.756;2023-10-19T00:02:00;100189.84;;;8.23;76.60
79463;BME280;68931;47.286;18.756;2023-10-19T00:02:32;100187.31;;;8.21;75.56
79463;BME280;68931;47.286;18.756;2023-10-19T00:03:04;100179.63;;;8.18;76.09
79463;BME280;68931;47.286;18.756;2023-10-19T00:03:38;100192.31;;;8.26;75.31
79463;BME280;68931;47.286;18.756;2023-10-19T00:04:10;100157.53;;;8.08;75.99
79463;BME280;68931;47.286;18.756;2023-10-19T00:04:44;100181.00;;;8.25;76.33
79463;BME280;68931;47.286;18.756;2023-10-19T00:05:17;100153.97;;;8.09;74.95
79463;BME280;68931;47.286;18.756;2023-10-19T00:05:50;100169.03;;;8.21;75.20
79463;BME280;68931;47.286;18.756;2023-10-19T00:06:22;100181.09;;;8.24;74.86
79463;BME280;68931;47.286;18.756;2023-10-19T00:06:57;100178.41;;;8.25;74.89
79463;BME280;68931;47.286;18.756;2023-10-19T00:07:35;100168.59;;;8.13;75.48
79463;BME280;68931;47.286;18.756;2023-10-19T00:08:07;100142.94;;;8.04;75.91
79463;BME280;68931;47.286;18.756;2023-10-19T00:08:52;100172.56;;;8.20;76.45
79463;BME280;68931;47.286;18.756;2023-10-19T00:09:24;100159.06;;;8.12;75.94
79463;BME280;68931;47.286;18.756;2023-10-19T00:09:57;100152.00;;;8.14;75.09
79463;BME280;68931;47.286;18.756;2023-10-19T00:10:29;100145.22;;;8.10;76.32
79463;BME280;68931;47.286;18.756;2023-10-19T00:11:08;100124.16;;;7.98;75.56
79463;BME280;68931;47.286;18.756;2023-10-19T00:11:41;100145.22;;;8.10;75.71
79463;BME280;68931;47.286;18.756;2023-10-19T00:12:16;100159.66;;;8.17;75.14
79463;BME280;68931;47.286;18.756;2023-10-19T00:12:48;100164.72;;;8.20;74.99
79463;BME280;68931;47.286;18.756;2023-10-19T00:13:29;100156.22;;;8.17;75.72
79463;BME280;68931;47.286;18.756;2023-10-19T00:14:04;100146.06;;;8.11;75.99
79463;BME280;68931;47.286;18.756;2023-10-19T00:14:36;100169.72;;;8.25;76.45
79463;BME280;68931;47.286;18.756;2023-10-19T00:15:08;100159.56;;;8.19;75.63
79463;BME280;68931;47.286;18.756;2023-10-19T00:15:43;100162.88;;;8.22;76.36
79463;BME280;68931;47.286;18.756;2023-10-19T00:16:23;100132.56;;;8.03;75.68
79463;BME280;68931;47.286;18.756;2023-10-19T00:17:01;100139.78;;;8.15;75.65
79463;BME280;68931;47.286;18.756;2023-10-19T00:17:39;100147.97;;;8.24;76.03
79463;BME280;68931;47.286;18.756;2023-10-19T00:18:11;100138.06;;;8.14;75.97
79463;BME280;68931;47.286;18.756;2023-10-19T00:18:49;100140.69;;;8.14;75.24
79463;BME280;68931;47.286;18.756;2023-10-19T00:19:24;100148.13;;;8.21;75.36
79463;BME280;68931;47.286;18.756;2023-10-19T00:19:59;100139.50;;;8.19;75.50
79463;BME280;68931;47.286;18.756;2023-10-19T00:20:53;100148.13;;;8.21;75.92
79463;BME280;68931;47.286;18.756;2023-10-19T00:21:42;100141.03;;;8.23;76.01
79463;BME280;68931;47.286;18.756;2023-10-19T00:22:26;100135.81;;;8.23;76.26
79463;BME280;68931;47.286;18.756;2023-10-19T00:23:03;100125.16;;;8.11;76.53
79463;BME280;68931;47.286;18.756;2023-10-19T00:23:37;100103.91;;;8.01;76.23
79463;BME280;68931;47.286;18.756;2023-10-19T00:24:11;100129.31;;;8.15;76.46
79463;BME280;68931;47.286;18.756;2023-10-19T00:24:51;100123.41;;;8.11;75.96
79463;BME280;68931;47.286;18.756;2023-10-19T00:25:24;100136.31;;;8.14;75.99
79463;BME280;68931;47.286;18.756;2023-10-19T00:26:00;100144.72;;;8.19;76.16
79463;BME280;68931;47.286;18.756;2023-10-19T00:26:37;100149.88;;;8.21;75.77
79463;BME280;68931;47.286;18.756;2023-10-19T00:27:09;100134.97;;;8.23;75.72
79463;BME280;68931;47.286;18.756;2023-10-19T00:27:49;100139.34;;;8.22;76.20
79463;BME280;68931;47.286;18.756;2023-10-19T00:28:21;100143.75;;;8.22;75.84
79463;BME280;68931;47.286;18.756;2023-10-19T00:28:54;100133.44;;;8.19;76.25
79463;BME280;68931;47.286;18.756;2023-10-19T00:29:27;100119.09;;;8.10;76.27
79463;BME280;68931;47.286;18.756;2023-10-19T00:30:05;100124.75;;;8.18;76.41
79463;BME280;68931;47.286;18.756;2023-10-19T00:30:42;100117.94;;;8.16;75.81
79463;BME280;68931;47.286;18.756;2023-10-19T00:31:18;100135.56;;;8.28;75.88
79463;BME280;68931;47.286;18.756;2023-10-19T00:31:52;100135.66;;;8.26;76.18
79463;BME280;68931;47.286;18.756;2023-10-19T00:32:24;100125.38;;;8.23;76.41
79463;BME280;68931;47.286;18.756;2023-10-19T00:32:59;100132.94;;;8.28;76.12
79463;BME280;68931;47.286;18.756;2023-10-19T00:33:35;100120.47;;;8.17;75.97
79463;BME280;68931;47.286;18.756;2023-10-19T00:34:13;100120.56;;;8.16;76.11
79463;BME280;68931;47.286;18.756;2023-10-19T00:34:45;100124.69;;;8.20;76.30
79463;BME280;68931;47.286;18.756;2023-10-19T00:35:23;100129.75;;;8.23;75.74
79463;BME280;68931;47.286;18.756;2023-10-19T00:36:08;100110.41;;;8.10;76.15
79463;BME280;68931;47.286;18.756;2023-10-19T00:36:44;100096.50;;;8.09;76.67
79463;BME280;68931;47.286;18.756;2023-10-19T00:37:23;100089.41;;;7.96;75.55
79463;BME280;68931;47.286;18.756;2023-10-19T00:37:58;100124.69;;;8.20;76.60
79463;BME280;68931;47.286;18.756;2023-10-19T00:38:50;100116.75;;;8.21;76.73
79463;BME280;68931;47.286;18.756;2023-10-19T00:39:30;100121.13;;;8.21;77.26
79463;BME280;68931;47.286;18.756;2023-10-19T00:40:12;100123.53;;;8.25;77.51
79463;BME280;68931;47.286;18.756;2023-10-19T00:40:58;100102.50;;;8.11;78.03
79463;BME280;68931;47.286;18.756;2023-10-19T00:41:32;100077.28;;;7.94;78.34
79463;BME280;68931;47.286;18.756;2023-10-19T00:42:07;100102.69;;;8.08;78.07
79463;BME280;68931;47.286;18.756;2023-10-19T00:42:39;100115.41;;;8.14;77.61
79463;BME280;68931;47.286;18.756;2023-10-19T00:43:29;100093.88;;;8.09;78.59
79463;BME280;68931;47.286;18.756;2023-10-19T00:44:07;100105.66;;;8.18;79.40
79463;BME280;68931;47.286;18.756;2023-10-19T00:44:56;100097.03;;;8.00;78.83
79463;BME280;68931;47.286;18.756;2023-10-19T00:45:36;100099.63;;;8.00;80.01
79463;BME280;68931;47.286;18.756;2023-10-19T00:46:12;100108.66;;;8.10;80.81
79463;BME280;68931;47.286;18.756;2023-10-19T00:47:03;100109.50;;;8.11;80.56
79463;BME280;68931;47.286;18.756;2023-10-19T00:47:39;100108.97;;;8.04;80.58
79463;BME280;68931;47.286;18.756;2023-10-19T00:48:14;100102.16;;;8.02;80.63
79463;BME280;68931;47.286;18.756;2023-10-19T00:49:02;100103.91;;;8.01;81.65
79463;BME280;68931;47.286;18.756;2023-10-19T00:49:37;100099.44;;;8.03;81.15
79463;BME280;68931;47.286;18.756;2023-10-19T00:50:10;100092.03;;;7.96;81.87
79463;BME280;68931;47.286;18.756;2023-10-19T00:50:48;100087.22;;;7.88;81.46
79463;BME280;68931;47.286;18.756;2023-10-19T00:51:35;100087.22;;;7.88;82.24
79463;BME280;68931;47.286;18.756;2023-10-19T00:52:08;100097.25;;;7.96;82.75
79463;BME280;68931;47.286;18.756;2023-10-19T00:52:44;100091.25;;;7.93;82.73
79463;BME280;68931;47.286;18.756;2023-10-19T00:53:21;100092.44;;;7.88;82.86
79463;BME280;68931;47.286;18.756;2023-10-19T00:53:59;100066.97;;;7.76;83.54
79463;BME280;68931;47.286;18.756;2023-10-19T00:54:35;100089.91;;;7.86;83.45
79463;BME280;68931;47.286;18.756;2023-10-19T00:55:15;100081.22;;;7.86;84.25
79463;BME280;68931;47.286;18.756;2023-10-19T00:55:48;100074.38;;;7.83;83.97
79463;BME280;68931;47.286;18.756;2023-10-19T00:56:24;100086.53;;;7.84;84.33
79463;BME280;68931;47.286;18.756;2023-10-19T00:57:00;100082.47;;;7.79;84.93
79463;BME280;68931;47.286;18.756;2023-10-19T00:57:42;100040.13;;;7.56;85.42
79463;BME280;68931;47.286;18.756;2023-10-19T00:58:20;100093.50;;;7.84;85.84
79463;BME280;68931;47.286;18.756;2023-10-19T00:59:03;100082.91;;;7.87;85.50
79463;BME280;68931;47.286;18.756;2023-10-19T00:59:47;100087.22;;;7.88;85.87
79463;BME280;68931;47.286;18.756;2023-10-19T01:00:25;100072.72;;;7.82;86.35
79463;BME280;68931;47.286;18.756;2023-10-19T01:01:06;100084.69;;;7.86;85.83
79463;BME280;68931;47.286;18.756;2023-10-19T01:01:52;100086.97;;;7.92;85.91
79463;BME280;68931;47.286;18.756;2023-10-19T01:02:27;100079.03;;;7.94;86.12
79463;BME280;68931;47.286;18.756;2023-10-19T01:03:00;100094.66;;;7.96;86.43
79463;BME280;68931;47.286;18.756;2023-10-19T01:03:33;100087.91;;;7.91;86.62
79463;BME280;68931;47.286;18.756;2023-10-19T01:04:08;100092.19;;;7.92;86.45
79463;BME280;68931;47.286;18.756;2023-10-19T01:04:47;100089.56;;;7.92;86.38
79463;BME280;68931;47.286;18.756;2023-10-19T01:05:37;100105.94;;;7.96;87.27
79463;BME280;68931;47.286;18.756;2023-10-19T01:06:09;100093.38;;;7.87;86.46
79463;BME280;68931;47.286;18.756;2023-10-19T01:06:44;100096.41;;;7.95;86.45
79463;BME280;68931;47.286;18.756;2023-10-19T01:07:31;100096.66;;;7.90;86.77
79463;BME280;68931;47.286;18.756;2023-10-19T01:08:06;100099.16;;;7.92;87.08
79463;BME280;68931;47.286;18.756;2023-10-19T01:08:54;100093.03;;;7.93;87.45
79463;BME280;68931;47.286;18.756;2023-10-19T01:09:30;100098.88;;;7.98;87.25
79463;BME280;68931;47.286;18.756;2023-10-19T01:10:07;100104.69;;;8.03;88.00
79463;BME280;68931;47.286;18.756;2023-10-19T01:10:55;100099.78;;;7.97;87.85
79463;BME280;68931;47.286;18.756;2023-10-19T01:11:29;100102.00;;;8.05;87.41
79463;BME280;68931;47.286;18.756;2023-10-19T01:12:02;100095.91;;;8.04;88.07
79463;BME280;68931;47.286;18.756;2023-10-19T01:12:56;100097.53;;;8.07;87.81
79463;BME280;68931;47.286;18.756;2023-10-19T01:13:31;100098.47;;;8.06;87.59
79463;BME280;68931;47.286;18.756;2023-10-19T01:14:19;100097.34;;;8.10;88.15
79463;BME280;68931;47.286;18.756;2023-10-19T01:15:08;100097.28;;;8.11;87.71
79463;BME280;68931;47.286;18.756;2023-10-19T01:15:48;100090.28;;;8.12;87.53
79463;BME280;68931;47.286;18.756;2023-10-19T01:16:21;100106.81;;;8.12;87.66
79463;BME280;68931;47.286;18.756;2023-10-19T01:16:54;100095.59;;;8.10;87.18
79463;BME280;68931;47.286;18.756;2023-10-19T01:17:29;100081.34;;;8.00;87.07
79463;BME280;68931;47.286;18.756;2023-10-19T01:18:05;100092.03;;;8.11;87.23
79463;BME280;68931;47.286;18.756;2023-10-19T01:18:39;100101.34;;;8.17;87.60
79463;BME280;68931;47.286;18.756;2023-10-19T01:19:14;100090.78;;;8.18;87.37
79463;BME280;68931;47.286;18.756;2023-10-19T01:19:50;100079.84;;;8.12;87.01
79463;BME280;68931;47.286;18.756;2023-10-19T01:20:27;100102.34;;;8.14;87.82
79463;BME280;68931;47.286;18.756;2023-10-19T01:21:02;100067.84;;;7.92;87.83
79463;BME280;68931;47.286;18.756;2023-10-19T01:21:41;100086.06;;;8.09;88.32
79463;BME280;68931;47.286;18.756;2023-10-19T01:22:17;100080.81;;;8.09;87.95
79463;BME280;68931;47.286;18.756;2023-10-19T01:22:55;100093.41;;;8.18;86.85
79463;BME280;68931;47.286;18.756;2023-10-19T01:23:40;100072.19;;;8.09;87.79
79463;BME280;68931;47.286;18.756;2023-10-19T01:24:12;100084.81;;;8.16;87.87
79463;BME280;68931;47.286;18.756;2023-10-19T01:24:48;100091.56;;;8.20;87.43
79463;BME280;68931;47.286;18.756;2023-10-19T01:25:21;100083.78;;;8.19;88.32
79463;BME280;68931;47.286;18.756;2023-10-19T01:26:06;100044.09;;;7.97;87.75
79463;BME280;68931;47.286;18.756;2023-10-19T01:26:39;100080.81;;;8.09;88.55
79463;BME280;68931;47.286;18.756;2023-10-19T01:27:14;100090.53;;;8.07;89.08
79463;BME280;68931;47.286;18.756;2023-10-19T01:27:46;100080.75;;;8.11;89.43
79463;BME280;68931;47.286;18.756;2023-10-19T01:28:19;100075.38;;;8.14;89.44
79463;BME280;68931;47.286;18.756;2023-10-19T01:28:51;100068.03;;;8.05;90.01
79463;BME280;68931;47.286;18.756;2023-10-19T01:29:32;100081.59;;;8.11;89.32
79463;BME280;68931;47.286;18.756;2023-10-19T01:30:07;100071.22;;;8.10;89.61
79463;BME280;68931;47.286;18.756;2023-10-19T01:30:40;100078.91;;;8.13;89.11
79463;BME280;68931;47.286;18.756;2023-10-19T01:31:23;100077.13;;;8.13;89.68
79463;BME280;68931;47.286;18.756;2023-10-19T01:32:02;100063.31;;;8.11;89.98
79463;BME280;68931;47.286;18.756;2023-10-19T01:32:40;100063.31;;;8.11;89.84
79463;BME280;68931;47.286;18.756;2023-10-19T01:33:14;100073.75;;;8.11;89.89
79463;BME280;68931;47.286;18.756;2023-10-19T01:33:53;100055.38;;;7.97;89.69
79463;BME280;68931;47.286;18.756;2023-10-19T01:34:32;100059.13;;;8.09;89.86
79463;BME280;68931;47.286;18.756;2023-10-19T01:35:08;100064.41;;;8.07;89.89
79463;BME280;68931;47.286;18.756;2023-10-19T01:35:43;100061.63;;;8.10;89.68
79463;BME280;68931;47.286;18.756;2023-10-19T01:36:34;100056.25;;;8.13;89.82
79463;BME280;68931;47.286;18.756;2023-10-19T01:37:16;100066.97;;;8.09;90.69
79463;BME280;68931;47.286;18.756;2023-10-19T01:37:48;100063.22;;;8.13;89.69
79463;BME280;68931;47.286;18.756;2023-10-19T01:38:20;100056.41;;;8.10;90.16
79463;BME280;68931;47.286;18.756;2023-10-19T01:38:54;100057.31;;;8.09;90.04
79463;BME280;68931;47.286;18.756;2023-10-19T01:39:27;100043.09;;;7.99;90.34
79463;BME280;68931;47.286;18.756;2023-10-19T01:39:59;100046.56;;;8.00;90.25
79463;BME280;68931;47.286;18.756;2023-10-19T01:40:33;100050.81;;;8.01;90.44
79463;BME280;68931;47.286;18.756;2023-10-19T01:41:07;100059.19;;;8.07;90.57
79463;BME280;68931;47.286;18.756;2023-10-19T01:41:45;100056.59;;;8.07;90.87
79463;BME280;68931;47.286;18.756;2023-10-19T01:42:18;100053.13;;;8.07;91.04
79463;BME280;68931;47.286;18.756;2023-10-19T01:42:50;100061.63;;;8.10;91.18
79463;BME280;68931;47.286;18.756;2023-10-19T01:43:26;100036.84;;;8.02;90.73
79463;BME280;68931;47.286;18.756;2023-10-19T01:44:02;100052.84;;;8.11;91.08
79463;BME280;68931;47.286;18.756;2023-10-19T01:44:45;100050.25;;;8.11;91.00
79463;BME280;68931;47.286;18.756;2023-10-19T01:45:17;100054.56;;;8.12;91.00
79463;BME280;68931;47.286;18.756;2023-10-19T01:45:52;100035.69;;;8.07;91.35
79463;BME280;68931;47.286;18.756;2023-10-19T01:46:26;100007.25;;;7.85;91.47
79463;BME280;68931;47.286;18.756;2023-10-19T01:47:05;100036.19;;;7.98;91.32
79463;BME280;68931;47.286;18.756;2023-10-19T01:47:37;100046.38;;;8.03;91.63
79463;BME280;68931;47.286;18.756;2023-10-19T01:48:15;100048.75;;;8.07;91.18
79463;BME280;68931;47.286;18.756;2023-10-19T01:48:49;100031.63;;;8.02;91.94
79463;BME280;68931;47.286;18.756;2023-10-19T01:49:28;100051.78;;;8.15;91.43
79463;BME280;68931;47.286;18.756;2023-10-19T01:50:01;100047.47;;;8.14;92.03
79463;BME280;68931;47.286;18.756;2023-10-19T01:50:37;100051.69;;;8.17;91.70
79463;BME280;68931;47.286;18.756;2023-10-19T01:51:11;100043.88;;;8.17;91.79
79463;BME280;68931;47.286;18.756;2023-10-19T01:51:44;100038.88;;;8.12;91.36
79463;BME280;68931;47.286;18.756;2023-10-19T01:52:18;100041.41;;;8.14;91.91
79463;BME280;68931;47.286;18.756;2023-10-19T01:52:50;100046.47;;;8.17;91.99
79463;BME280;68931;47.286;18.756;2023-10-19T01:53:23;100030.63;;;8.04;92.09
79463;BME280;68931;47.286;18.756;2023-10-19T01:53:57;100045.56;;;8.18;92.22
79463;BME280;68931;47.286;18.756;2023-10-19T01:54:28;100038.44;;;8.20;92.14
79463;BME280;68931;47.286;18.756;2023-10-19T01:55:01;100045.63;;;8.16;92.42
79463;BME280;68931;47.286;18.756;2023-10-19T01:55:44;100040.22;;;8.19;91.93
79463;BME280;68931;47.286;18.756;2023-10-19T01:56:17;100036.75;;;8.19;92.13
79463;BME280;68931;47.286;18.756;2023-10-19T01:56:53;100033.41;;;8.17;92.26
79463;BME280;68931;47.286;18.756;2023-10-19T01:57:28;100029.69;;;8.21;92.01
79463;BME280;68931;47.286;18.756;2023-10-19T01:58:00;100027.91;;;8.21;92.23
79463;BME280;68931;47.286;18.756;2023-10-19T01:58:32;100030.81;;;8.17;91.84
79463;BME280;68931;47.286;18.756;2023-10-19T01:59:11;100017.97;;;8.12;92.08
79463;BME280;68931;47.286;18.756;2023-10-19T01:59:43;100022.53;;;8.09;92.23
79463;BME280;68931;47.286;18.756;2023-10-19T02:00:16;100024.88;;;8.13;92.20
79463;BME280;68931;47.286;18.756;2023-10-19T02:00:55;100035.91;;;8.18;91.96
79463;BME280;68931;47.286;18.756;2023-10-19T02:01:31;100043.03;;;8.16;91.98
79463;BME280;68931;47.286;18.756;2023-10-19T02:02:04;100038.78;;;8.14;91.57
79463;BME280;68931;47.286;18.756;2023-10-19T02:02:50;100036.75;;;8.19;92.41
79463;BME280;68931;47.286;18.756;2023-10-19T02:03:22;100023.19;;;8.12;92.05
79463;BME280;68931;47.286;18.756;2023-10-19T02:03:56;100030.88;;;8.15;92.28
79463;BME280;68931;47.286;18.756;2023-10-19T02:04:31;100028.34;;;8.14;91.72
79463;BME280;68931;47.286;18.756;2023-10-19T02:05:07;100028.06;;;8.18;91.96
79463;BME280;68931;47.286;18.756;2023-10-19T02:05:45;100033.41;;;8.17;92.04
79463;BME280;68931;47.286;18.756;2023-10-19T02:06:21;100031.53;;;8.19;91.96
79463;BME280;68931;47.286;18.756;2023-10-19T02:06:58;100001.81;;;8.06;91.67
79463;BME280;68931;47.286;18.756;2023-10-19T02:07:34;100015.28;;;8.14;91.69
79463;BME280;68931;47.286;18.756;2023-10-19T02:08:12;100017.81;;;8.15;91.66
79463;BME280;68931;47.286;18.756;2023-10-19T02:08:46;100019.75;;;8.12;91.32
79463;BME280;68931;47.286;18.756;2023-10-19T02:09:20;100032.38;;;8.19;91.26
79463;BME280;68931;47.286;18.756;2023-10-19T02:09:55;100010.56;;;8.05;90.86
79463;BME280;68931;47.286;18.756;2023-10-19T02:10:27;99976.19;;;7.81;91.13
79463;BME280;68931;47.286;18.756;2023-10-19T02:10:59;100016.63;;;8.05;91.41
79463;BME280;68931;47.286;18.756;2023-10-19T02:11:35;100030.81;;;8.17;91.85
79463;BME280;68931;47.286;18.756;2023-10-19T02:12:09;100005.25;;;8.06;91.84
79463;BME280;68931;47.286;18.756;2023-10-19T02:12:41;100020.34;;;8.17;91.80
79463;BME280;68931;47.286;18.756;2023-10-19T02:13:14;100019.59;;;8.15;91.80
79463;BME280;68931;47.286;18.756;2023-10-19T02:13:48;100005.00;;;8.11;91.30
79463;BME280;68931;47.286;18.756;2023-10-19T02:14:30;100015.28;;;8.14;91.74
79463;BME280;68931;47.286;18.756;2023-10-19T02:15:02;100012.59;;;8.15;92.22
79463;BME280;68931;47.286;18.756;2023-10-19T02:15:35;99995.88;;;8.02;91.45
79463;BME280;68931;47.286;18.756;2023-10-19T02:16:08;100001.72;;;8.07;91.89
79463;BME280;68931;47.286;18.756;2023-10-19T02:16:43;99999.28;;;8.04;92.11
79463;BME280;68931;47.286;18.756;2023-10-19T02:17:16;100008.44;;;8.11;91.50
79463;BME280;68931;47.286;18.756;2023-10-19T02:17:48;100009.22;;;8.13;92.12
79463;BME280;68931;47.286;18.756;2023-10-19T02:18:20;99989.81;;;8.02;92.19
79463;BME280;68931;47.286;18.756;2023-10-19T02:18:53;99989.59;;;8.06;91.73
79463;BME280;68931;47.286;18.756;2023-10-19T02:19:27;99998.34;;;8.05;91.74
79463;BME280;68931;47.286;18.756;2023-10-19T02:20:01;99976.25;;;7.95;91.69
79463;BME280;68931;47.286;18.756;2023-10-19T02:20:48;100003.22;;;8.11;91.58
79463;BME280;68931;47.286;18.756;2023-10-19T02:21:24;99995.88;;;8.02;92.33
79463;BME280;68931;47.286;18.756;2023-10-19T02:22:03;99986.28;;;8.03;91.96
79463;BME280;68931;47.286;18.756;2023-10-19T02:22:46;100002.28;;;8.12;91.77
79463;BME280;68931;47.286;18.756;2023-10-19T02:23:19;99990.50;;;8.05;91.82
79463;BME280;68931;47.286;18.756;2023-10-19T02:23:51;100000.53;;;8.13;92.51
79463;BME280;68931;47.286;18.756;2023-10-19T02:24:23;100007.53;;;8.12;92.23
79463;BME280;68931;47.286;18.756;2023-10-19T02:24:55;99998.91;;;8.10;92.16
79463;BME280;68931;47.286;18.756;2023-10-19T02:25:29;100004.16;;;8.10;92.40
79463;BME280;68931;47.286;18.756;2023-10-19T02:26:08;99994.88;;;8.05;91.56
79463;BME280;68931;47.286;18.756;2023-10-19T02:26:45;100005.00;;;8.11;92.53
79463;BME280;68931;47.286;18.756;2023-10-19T02:27:21;99992.19;;;8.06;91.68
79463;BME280;68931;47.286;18.756;2023-10-19T02:28:04;100000.97;;;8.05;92.34
79463;BME280;68931;47.286;18.756;2023-10-19T02:28:40;100000.78;;;8.08;92.58
79463;BME280;68931;47.286;18.756;2023-10-19T02:29:15;99981.25;;;8.00;92.61
79463;BME280;68931;47.286;18.756;2023-10-19T02:29:47;100003.13;;;8.13;92.45
79463;BME280;68931;47.286;18.756;2023-10-19T02:30:19;99983.09;;;7.98;92.64
79463;BME280;68931;47.286;18.756;2023-10-19T02:30:51;99982.19;;;7.99;92.02
79463;BME280;68931;47.286;18.756;2023-10-19T02:31:24;99996.41;;;8.09;91.98
79463;BME280;68931;47.286;18.756;2023-10-19T02:31:59;99988.66;;;8.07;92.59
79463;BME280;68931;47.286;18.756;2023-10-19T02:32:36;100006.53;;;8.15;92.97
79463;BME280;68931;47.286;18.756;2023-10-19T02:33:11;99984.28;;;8.08;92.75
79463;BME280;68931;47.286;18.756;2023-10-19T02:33:43;99978.88;;;7.95;92.23
79463;BME280;68931;47.286;18.756;2023-10-19T02:34:19;99993.88;;;8.07;92.39
79463;BME280;68931;47.286;18.756;2023-10-19T02:34:51;99992.78;;;8.11;91.91
79463;BME280;68931;47.286;18.756;2023-10-19T02:35:23;99995.22;;;8.14;92.63
79463;BME280;68931;47.286;18.756;2023-10-19T02:35:55;99991.84;;;8.12;92.49
79463;BME280;68931;47.286;18.756;2023-10-19T02:36:30;99986.47;;;8.15;92.99
79463;BME280;68931;47.286;18.756;2023-10-19T02:37:02;99987.38;;;8.14;92.89
79463;BME280;68931;47.286;18.756;2023-10-19T02:37:34;99987.72;;;8.08;93.11
79463;BME280;68931;47.286;18.756;2023-10-19T02:38:06;99985.44;;;8.02;93.11
79463;BME280;68931;47.286;18.756;2023-10-19T02:38:47;99980.06;;;8.05;93.15
79463;BME280;68931;47.286;18.756;2023-10-19T02:39:23;99995.56;;;8.08;92.42
79463;BME280;68931;47.286;18.756;2023-10-19T02:40:00;99983.44;;;8.07;93.08
79463;BME280;68931;47.286;18.756;2023-10-19T02:40:32;99984.28;;;8.08;93.01
79463;BME280;68931;47.286;18.756;2023-10-19T02:41:04;99976.59;;;8.05;92.99
79463;BME280;68931;47.286;18.756;2023-10-19T02:41:38;99978.94;;;8.09;92.74
79463;BME280;68931;47.286;18.756;2023-10-19T02:42:10;99974.00;;;8.05;92.40
79463;BME280;68931;47.286;18.756;2023-10-19T02:42:42;99978.78;;;8.12;92.94
79463;BME280;68931;47.286;18.756;2023-10-19T02:43:18;99962.84;;;8.01;92.59
79463;BME280;68931;47.286;18.756;2023-10-19T02:43:51;99977.88;;;8.13;92.32
79463;BME280;68931;47.286;18.756;2023-10-19T02:44:35;99942.22;;;7.97;92.57
79463;BME280;68931;47.286;18.756;2023-10-19T02:45:12;99963.09;;;8.12;92.74
79463;BME280;68931;47.286;18.756;2023-10-19T02:45:48;99959.84;;;8.09;93.06
79463;BME280;68931;47.286;18.756;2023-10-19T02:46:20;99961.63;;;8.08;92.98
79463;BME280;68931;47.286;18.756;2023-10-19T02:46:54;99951.25;;;8.07;93.43
79463;BME280;68931;47.286;18.756;2023-10-19T02:47:30;99953.59;;;8.11;93.60
79463;BME280;68931;47.286;18.756;2023-10-19T02:48:05;99965.22;;;8.21;93.29
79463;BME280;68931;47.286;18.756;2023-10-19T02:48:44;99964.44;;;8.19;92.99
79463;BME280;68931;47.286;18.756;2023-10-19T02:49:17;99955.13;;;8.15;93.03
79463;BME280;68931;47.286;18.756;2023-10-19T02:49:52;99944.06;;;8.10;93.11
79463;BME280;68931;47.286;18.756;2023-10-19T02:50:29;99924.53;;;8.02;93.24
79463;BME280;68931;47.286;18.756;2023-10-19T02:51:01;99951.38;;;8.19;93.30
79463;BME280;68931;47.286;18.756;2023-10-19T02:51:42;99950.88;;;8.13;93.13
79463;BME280;68931;47.286;18.756;2023-10-19T02:52:19;99952.41;;;8.17;93.84
79463;BME280;68931;47.286;18.756;2023-10-19T02:52:54;99950.03;;;8.12;93.48
79463;BME280;68931;47.286;18.756;2023-10-19T02:53:26;99945.81;;;8.10;93.76
79463;BME280;68931;47.286;18.756;2023-10-19T02:53:59;99938.00;;;8.10;93.82
79463;BME280;68931;47.286;18.756;2023-10-19T02:54:33;99932.75;;;8.10;93.15
79463;BME280;68931;47.286;18.756;2023-10-19T02:55:07;99948.03;;;8.17;93.84
79463;BME280;68931;47.286;18.756;2023-10-19T02:55:39;99944.66;;;8.15;93.48
79463;BME280;68931;47.286;18.756;2023-10-19T02:56:13;99951.97;;;8.24;93.75
79463;BME280;68931;47.286;18.756;2023-10-19T02:56:49;99954.59;;;8.24;93.89
79463;BME280;68931;47.286;18.756;2023-10-19T02:57:23;99944.47;;;8.18;93.74
79463;BME280;68931;47.286;18.756;2023-10-19T02:57:56;99939.91;;;8.22;93.56
79463;BME280;68931;47.286;18.756;2023-10-19T02:58:30;99949.53;;;8.21;93.84
79463;BME280;68931;47.286;18.756;2023-10-19T02:59:03;99921.59;;;8.08;94.10
79463;BME280;68931;47.286;18.756;2023-10-19T02:59:37;99946.16;;;8.19;93.63
79463;BME280;68931;47.286;18.756;2023-10-19T03:00:11;99941.19;;;8.15;93.65
79463;BME280;68931;47.286;18.756;2023-10-19T03:00:44;99950.38;;;8.22;93.99
79463;BME280;68931;47.286;18.756;2023-10-19T03:01:20;99941.97;;;8.17;93.49
79463;BME280;68931;47.286;18.756;2023-10-19T03:01:55;99945.22;;;8.20;93.93
79463;BME280;68931;47.286;18.756;2023-10-19T03:02:43;99927.28;;;8.14;93.63
79463;BME280;68931;47.286;18.756;2023-10-19T03:03:15;99945.16;;;8.22;94.04
79463;BME280;68931;47.286;18.756;2023-10-19T03:03:52;99934.22;;;8.15;93.77
79463;BME280;68931;47.286;18.756;2023-10-19T03:04:25;99946.56;;;8.27;94.04
79463;BME280;68931;47.286;18.756;2023-10-19T03:04:57;99942.44;;;8.23;94.53
79463;BME280;68931;47.286;18.756;2023-10-19T03:05:30;99922.84;;;8.16;94.56
79463;BME280;68931;47.286;18.756;2023-10-19T03:06:02;99950.66;;;8.33;93.79
79463;BME280;68931;47.286;18.756;2023-10-19T03:06:36;99938.84;;;8.26;94.35
79463;BME280;68931;47.286;18.756;2023-10-19T03:07:09;99943.09;;;8.27;94.14
79463;BME280;68931;47.286;18.756;2023-10-19T03:07:44;99931.16;;;8.23;94.43
79463;BME280;68931;47.286;18.756;2023-10-19T03:08:16;99939.34;;;8.33;93.87
79463;BME280;68931;47.286;18.756;2023-10-19T03:08:51;99894.63;;;8.07;94.31
79463;BME280;68931;47.286;18.756;2023-10-19T03:09:29;99895.63;;;8.05;94.37